sensor_id;sensor_type;location;lat;lon;timestamp;P1;durP1;ratioP1;P2;durP2;ratioP2
84780;SDS011;75011;50.086;19.886;2024-03-23T00:57:54;63.38;;;35.63;;
84780;SDS011;75011;50.086;19.886;2024-03-23T01:00:55;60.90;;;33.50;;
84780;SDS011;75011;50.086;19.886;2024-03-23T01:03:57;62.65;;;35.75;;
84780;SDS011;75011;50.086;19.886;2024-03-23T01:06:57;66.70;;;35.38;;
84780;SDS011;75011;50.086;19.886;2024-03-23T01:10:00;66.68;;;32.28;;
84780;SDS011;75011;50.086;19.886;2024-03-23T01:13:01;60.35;;;31.25;;
84780;SDS011;75011;50.086;19.886;2024-03-23T01:16:03;58.85;;;32.70;;
84780;SDS011;75011;50.086;19.886;2024-03-23T01:19:04;54.35;;;30.95;;
84780;SDS011;75011;50.086;19.886;2024-03-23T01:22:06;60.90;;;32.38;;
84780;SDS011;75011;50.086;19.886;2024-03-23T01:25:08;59.65;;;30.10;;
84780;SDS011;75011;50.086;19.886;2024-03-23T01:28:10;55.67;;;31.38;;
84780;SDS011;75011;50.086;19.886;2024-03-23T01:31:11;59.55;;;30.63;;
84780;SDS011;75011;50.086;19.886;2024-03-23T01:34:12;55.45;;;30.85;;
84780;SDS011;75011;50.086;19.886;2024-03-23T01:37:13;59.67;;;30.48;;
84780;SDS011;75011;50.086;19.886;2024-03-23T01:40:17;55.97;;;29.60;;
84780;SDS011;75011;50.086;19.886;2024-03-23T01:43:18;56.10;;;30.90;;
84780;SDS011;75011;50.086;19.886;2024-03-23T01:46:19;57.70;;;30.58;;
84780;SDS011;75011;50.086;19.886;2024-03-23T01:49:20;56.10;;;30.13;;
84780;SDS011;75011;50.086;19.886;2024-03-23T01:52:22;59.58;;;30.17;;
84780;SDS011;75011;50.086;19.886;2024-03-23T01:55:25;59.75;;;32.95;;
84780;SDS011;75011;50.086;19.886;2024-03-23T01:58:26;61.25;;;33.28;;
84780;SDS011;75011;50.086;19.886;2024-03-23T02:01:27;53.42;;;31.50;;
84780;SDS011;75011;50.086;19.886;2024-03-23T02:04:28;61.72;;;34.17;;
84780;SDS011;75011;50.086;19.886;2024-03-23T02:07:30;52.47;;;32.30;;
84780;SDS011;75011;50.086;19.886;2024-03-23T02:10:32;55.22;;;32.90;;
84780;SDS011;75011;50.086;19.886;2024-03-23T02:13:34;58.50;;;32.90;;
84780;SDS011;75011;50.086;19.886;2024-03-23T02:16:34;65.00;;;33.53;;
84780;SDS011;75011;50.086;19.886;2024-03-23T02:19:37;67.38;;;34.35;;
84780;SDS011;75011;50.086;19.886;2024-03-23T02:22:38;64.85;;;31.80;;
84780;SDS011;75011;50.086;19.886;2024-03-23T02:25:42;58.63;;;31.48;;
84780;SDS011;75011;50.086;19.886;2024-03-23T02:28:42;64.22;;;34.30;;
84780;SDS011;75011;50.086;19.886;2024-03-23T02:31:44;63.78;;;33.05;;
84780;SDS011;75011;50.086;19.886;2024-03-23T02:34:46;51.30;;;29.95;;
84780;SDS011;75011;50.086;19.886;2024-03-23T02:37:46;59.75;;;29.80;;
84780;SDS011;75011;50.086;19.886;2024-03-23T02:40:49;75.10;;;33.70;;
84780;SDS011;75011;50.086;19.886;2024-03-23T02:43:50;67.28;;;35.97;;
84780;SDS011;75011;50.086;19.886;2024-03-23T02:46:52;71.63;;;34.45;;
84780;SDS011;75011;50.086;19.886;2024-03-23T02:49:52;58.03;;;31.85;;
84780;SDS011;75011;50.086;19.886;2024-03-23T02:52:54;63.17;;;34.40;;
84780;SDS011;75011;50.086;19.886;2024-03-23T02:55:58;69.45;;;33.95;;
84780;SDS011;75011;50.086;19.886;2024-03-23T02:59:00;69.47;;;31.90;;
84780;SDS011;75011;50.086;19.886;2024-03-23T03:02:01;61.80;;;33.55;;
84780;SDS011;75011;50.086;19.886;2024-03-23T03:05:04;59.80;;;32.28;;
84780;SDS011;75011;50.086;19.886;2024-03-23T03:08:07;54.20;;;29.45;;
84780;SDS011;75011;50.086;19.886;2024-03-23T03:11:09;56.55;;;33.72;;
84780;SDS011;75011;50.086;19.886;2024-03-23T03:14:10;55.42;;;33.20;;
84780;SDS011;75011;50.086;19.886;2024-03-23T03:17:11;54.00;;;31.83;;
84780;SDS011;75011;50.086;19.886;2024-03-23T03:20:12;59.30;;;28.92;;
84780;SDS011;75011;50.086;19.886;2024-03-23T03:23:13;59.60;;;30.90;;
84780;SDS011;75011;50.086;19.886;2024-03-23T03:26:16;57.92;;;33.90;;
84780;SDS011;75011;50.086;19.886;2024-03-23T03:29:17;57.88;;;31.10;;
84780;SDS011;75011;50.086;19.886;2024-03-23T03:32:19;62.03;;;31.25;;
84780;SDS011;75011;50.086;19.886;2024-03-23T03:35:20;58.88;;;29.90;;
84780;SDS011;75011;50.086;19.886;2024-03-23T03:38:21;58.08;;;29.73;;
84780;SDS011;75011;50.086;19.886;2024-03-23T03:41:23;53.00;;;32.35;;
84780;SDS011;75011;50.086;19.886;2024-03-23T03:44:25;52.20;;;27.40;;
84780;SDS011;75011;50.086;19.886;2024-03-23T03:47:26;59.03;;;31.65;;
84780;SDS011;75011;50.086;19.886;2024-03-23T03:50:27;57.00;;;29.45;;
84780;SDS011;75011;50.086;19.886;2024-03-23T03:53:28;54.17;;;31.52;;
84780;SDS011;75011;50.086;19.886;2024-03-23T03:56:31;56.38;;;32.67;;
84780;SDS011;75011;50.086;19.886;2024-03-23T03:59:33;53.80;;;32.17;;
84780;SDS011;75011;50.086;19.886;2024-03-23T04:02:34;51.28;;;30.55;;
84780;SDS011;75011;50.086;19.886;2024-03-23T04:05:36;56.38;;;28.63;;
84780;SDS011;75011;50.086;19.886;2024-03-23T04:08:36;55.42;;;29.83;;
84780;SDS011;75011;50.086;19.886;2024-03-23T04:11:39;59.50;;;30.30;;
84780;SDS011;75011;50.086;19.886;2024-03-23T04:14:40;58.90;;;29.75;;
84780;SDS011;75011;50.086;19.886;2024-03-23T04:17:41;61.50;;;31.30;;
84780;SDS011;75011;50.086;19.886;2024-03-23T04:20:43;54.92;;;30.88;;
84780;SDS011;75011;50.086;19.886;2024-03-23T04:23:44;50.90;;;28.08;;
84780;SDS011;75011;50.086;19.886;2024-03-23T04:26:46;59.35;;;31.42;;
84780;SDS011;75011;50.086;19.886;2024-03-23T04:29:48;57.10;;;31.35;;
84780;SDS011;75011;50.086;19.886;2024-03-23T04:32:49;57.75;;;29.80;;
84780;SDS011;75011;50.086;19.886;2024-03-23T04:35:51;51.53;;;30.80;;
84780;SDS011;75011;50.086;19.886;2024-03-23T04:38:51;55.65;;;31.48;;
84780;SDS011;75011;50.086;19.886;2024-03-23T04:41:54;57.58;;;33.05;;
84780;SDS011;75011;50.086;19.886;2024-03-23T04:44:56;57.20;;;31.48;;
84780;SDS011;75011;50.086;19.886;2024-03-23T04:47:57;60.40;;;31.98;;
84780;SDS011;75011;50.086;19.886;2024-03-23T04:50:59;55.75;;;33.47;;
84780;SDS011;75011;50.086;19.886;2024-03-23T04:54:01;52.60;;;32.58;;
84780;SDS011;75011;50.086;19.886;2024-03-23T04:57:04;54.97;;;31.58;;
84780;SDS011;75011;50.086;19.886;2024-03-23T05:00:06;56.92;;;32.00;;
84780;SDS011;75011;50.086;19.886;2024-03-23T05:03:16;52.45;;;31.25;;
84780;SDS011;75011;50.086;19.886;2024-03-23T05:06:19;47.80;;;28.88;;
84780;SDS011;75011;50.086;19.886;2024-03-23T05:09:20;47.88;;;25.77;;
84780;SDS011;75011;50.086;19.886;2024-03-23T05:12:23;47.35;;;27.77;;
84780;SDS011;75011;50.086;19.886;2024-03-23T05:15:24;47.13;;;28.05;;
84780;SDS011;75011;50.086;19.886;2024-03-23T05:18:25;46.03;;;27.95;;
84780;SDS011;75011;50.086;19.886;2024-03-23T05:21:28;45.22;;;28.20;;
84780;SDS011;75011;50.086;19.886;2024-03-23T05:24:30;49.15;;;28.63;;
84780;SDS011;75011;50.086;19.886;2024-03-23T05:27:32;47.15;;;28.58;;
84780;SDS011;75011;50.086;19.886;2024-03-23T05:30:34;47.30;;;25.00;;
84780;SDS011;75011;50.086;19.886;2024-03-23T05:33:35;47.22;;;26.25;;
84780;SDS011;75011;50.086;19.886;2024-03-23T05:36:38;43.40;;;26.15;;
84780;SDS011;75011;50.086;19.886;2024-03-23T05:39:38;42.60;;;27.02;;
84780;SDS011;75011;50.086;19.886;2024-03-23T05:42:41;43.63;;;25.67;;
84780;SDS011;75011;50.086;19.886;2024-03-23T05:45:42;47.97;;;26.73;;
84780;SDS011;75011;50.086;19.886;2024-03-23T05:48:44;45.72;;;27.65;;
84780;SDS011;75011;50.086;19.886;2024-03-23T05:51:45;47.05;;;26.70;;
84780;SDS011;75011;50.086;19.886;2024-03-23T05:54:46;43.67;;;26.77;;
84780;SDS011;75011;50.086;19.886;2024-03-23T05:57:49;43.67;;;23.70;;
84780;SDS011;75011;50.086;19.886;2024-03-23T06:00:49;48.80;;;28.65;;
84780;SDS011;75011;50.086;19.886;2024-03-23T06:03:58;43.67;;;26.05;;
84780;SDS011;75011;50.086;19.886;2024-03-23T06:07:01;41.50;;;25.92;;
84780;SDS011;75011;50.086;19.886;2024-03-23T06:10:03;43.63;;;26.17;;
84780;SDS011;75011;50.086;19.886;2024-03-23T06:13:07;46.35;;;27.05;;
84780;SDS011;75011;50.086;19.886;2024-03-23T06:16:08;40.63;;;22.30;;
84780;SDS011;75011;50.086;19.886;2024-03-23T06:19:10;42.75;;;26.05;;
84780;SDS011;75011;50.086;19.886;2024-03-23T06:22:12;39.65;;;25.38;;
84780;SDS011;75011;50.086;19.886;2024-03-23T06:25:13;41.75;;;25.52;;
84780;SDS011;75011;50.086;19.886;2024-03-23T06:28:16;43.53;;;24.13;;
84780;SDS011;75011;50.086;19.886;2024-03-23T06:31:18;42.20;;;25.17;;
84780;SDS011;75011;50.086;19.886;2024-03-23T06:34:20;40.28;;;25.45;;
84780;SDS011;75011;50.086;19.886;2024-03-23T06:37:21;41.47;;;24.27;;
84780;SDS011;75011;50.086;19.886;2024-03-23T06:40:23;42.10;;;22.60;;
84780;SDS011;75011;50.086;19.886;2024-03-23T06:43:26;43.67;;;25.73;;
84780;SDS011;75011;50.086;19.886;2024-03-23T06:46:28;40.80;;;22.70;;
84780;SDS011;75011;50.086;19.886;2024-03-23T06:49:30;40.33;;;24.10;;
84780;SDS011;75011;50.086;19.886;2024-03-23T06:52:31;40.08;;;24.65;;
84780;SDS011;75011;50.086;19.886;2024-03-23T06:55:32;41.53;;;24.98;;
84780;SDS011;75011;50.086;19.886;2024-03-23T06:58:35;40.08;;;25.25;;
84780;SDS011;75011;50.086;19.886;2024-03-23T07:01:36;43.97;;;24.38;;
84780;SDS011;75011;50.086;19.886;2024-03-23T07:04:37;40.30;;;24.80;;
84780;SDS011;75011;50.086;19.886;2024-03-23T07:07:40;42.85;;;26.67;;
84780;SDS011;75011;50.086;19.886;2024-03-23T07:10:41;38.95;;;24.75;;
84780;SDS011;75011;50.086;19.886;2024-03-23T07:13:44;38.25;;;22.40;;
84780;SDS011;75011;50.086;19.886;2024-03-23T07:16:45;44.10;;;23.90;;
84780;SDS011;75011;50.086;19.886;2024-03-23T07:19:46;38.92;;;24.42;;
84780;SDS011;75011;50.086;19.886;2024-03-23T07:22:48;41.03;;;24.90;;
84780;SDS011;75011;50.086;19.886;2024-03-23T07:25:58;41.13;;;25.20;;
84780;SDS011;75011;50.086;19.886;2024-03-23T07:29:01;39.72;;;23.35;;
84780;SDS011;75011;50.086;19.886;2024-03-23T07:32:04;40.45;;;23.35;;
84780;SDS011;75011;50.086;19.886;2024-03-23T07:35:05;40.30;;;22.85;;
84780;SDS011;75011;50.086;19.886;2024-03-23T07:38:07;46.95;;;24.60;;
84780;SDS011;75011;50.086;19.886;2024-03-23T07:41:08;48.03;;;27.73;;
84780;SDS011;75011;50.086;19.886;2024-03-23T07:44:12;45.35;;;26.35;;
84780;SDS011;75011;50.086;19.886;2024-03-23T07:47:12;41.80;;;23.92;;
84780;SDS011;75011;50.086;19.886;2024-03-23T07:50:14;43.05;;;25.15;;
84780;SDS011;75011;50.086;19.886;2024-03-23T07:53:15;43.65;;;25.02;;
84780;SDS011;75011;50.086;19.886;2024-03-23T07:56:16;41.72;;;25.38;;
84780;SDS011;75011;50.086;19.886;2024-03-23T07:59:20;45.72;;;25.35;;
84780;SDS011;75011;50.086;19.886;2024-03-23T08:02:21;40.65;;;25.25;;
84780;SDS011;75011;50.086;19.886;2024-03-23T08:05:22;43.15;;;25.13;;
84780;SDS011;75011;50.086;19.886;2024-03-23T08:08:26;42.15;;;24.27;;
84780;SDS011;75011;50.086;19.886;2024-03-23T08:11:28;42.95;;;25.33;;
84780;SDS011;75011;50.086;19.886;2024-03-23T08:14:31;45.38;;;25.48;;
84780;SDS011;75011;50.086;19.886;2024-03-23T08:17:32;42.35;;;24.92;;
84780;SDS011;75011;50.086;19.886;2024-03-23T08:20:34;46.90;;;25.13;;
84780;SDS011;75011;50.086;19.886;2024-03-23T08:23:35;44.08;;;27.13;;
84780;SDS011;75011;50.086;19.886;2024-03-23T08:26:38;40.83;;;24.35;;
84780;SDS011;75011;50.086;19.886;2024-03-23T08:29:41;36.10;;;21.80;;
84780;SDS011;75011;50.086;19.886;2024-03-23T08:32:42;42.90;;;23.23;;
84780;SDS011;75011;50.086;19.886;2024-03-23T08:35:44;40.08;;;22.05;;
84780;SDS011;75011;50.086;19.886;2024-03-23T08:38:55;36.17;;;22.08;;
84780;SDS011;75011;50.086;19.886;2024-03-23T08:41:56;33.72;;;20.15;;
84780;SDS011;75011;50.086;19.886;2024-03-23T08:44:58;35.63;;;21.27;;
84780;SDS011;75011;50.086;19.886;2024-03-23T08:48:00;38.92;;;20.80;;
84780;SDS011;75011;50.086;19.886;2024-03-23T08:51:01;32.22;;;19.67;;
84780;SDS011;75011;50.086;19.886;2024-03-23T08:54:03;32.92;;;19.48;;
84780;SDS011;75011;50.086;19.886;2024-03-23T08:57:04;33.83;;;19.65;;
84780;SDS011;75011;50.086;19.886;2024-03-23T09:00:09;34.83;;;20.02;;
84780;SDS011;75011;50.086;19.886;2024-03-23T09:03:11;27.88;;;16.05;;
84780;SDS011;75011;50.086;19.886;2024-03-23T09:06:12;28.83;;;16.77;;
84780;SDS011;75011;50.086;19.886;2024-03-23T09:09:15;25.35;;;14.82;;
84780;SDS011;75011;50.086;19.886;2024-03-23T09:12:15;25.38;;;15.90;;
84780;SDS011;75011;50.086;19.886;2024-03-23T09:15:19;25.50;;;14.48;;
84780;SDS011;75011;50.086;19.886;2024-03-23T09:18:19;26.05;;;13.75;;
84780;SDS011;75011;50.086;19.886;2024-03-23T09:21:21;19.83;;;11.63;;
84780;SDS011;75011;50.086;19.886;2024-03-23T09:24:23;20.77;;;11.50;;
84780;SDS011;75011;50.086;19.886;2024-03-23T09:27:23;18.27;;;11.73;;
84780;SDS011;75011;50.086;19.886;2024-03-23T09:30:26;19.52;;;12.10;;
84780;SDS011;75011;50.086;19.886;2024-03-23T09:33:27;20.75;;;11.73;;
84780;SDS011;75011;50.086;19.886;2024-03-23T09:36:29;19.60;;;13.35;;
84780;SDS011;75011;50.086;19.886;2024-03-23T09:39:30;19.65;;;13.02;;
84780;SDS011;75011;50.086;19.886;2024-03-23T09:42:32;20.08;;;12.13;;
84780;SDS011;75011;50.086;19.886;2024-03-23T09:45:35;17.13;;;10.45;;
84780;SDS011;75011;50.086;19.886;2024-03-23T09:48:40;18.52;;;11.57;;
84780;SDS011;75011;50.086;19.886;2024-03-23T09:51:44;18.48;;;11.23;;
84780;SDS011;75011;50.086;19.886;2024-03-23T09:54:45;21.40;;;11.52;;
84780;SDS011;75011;50.086;19.886;2024-03-23T09:57:46;18.30;;;11.23;;
84780;SDS011;75011;50.086;19.886;2024-03-23T10:00:49;17.65;;;10.65;;
84780;SDS011;75011;50.086;19.886;2024-03-23T10:03:50;15.95;;;11.55;;
84780;SDS011;75011;50.086;19.886;2024-03-23T10:06:52;15.82;;;11.10;;
84780;SDS011;75011;50.086;19.886;2024-03-23T10:09:53;17.20;;;11.65;;
84780;SDS011;75011;50.086;19.886;2024-03-23T10:12:54;14.07;;;8.07;;
84780;SDS011;75011;50.086;19.886;2024-03-23T10:15:57;15.00;;;9.63;;
84780;SDS011;75011;50.086;19.886;2024-03-23T10:19:00;12.65;;;6.53;;
84780;SDS011;75011;50.086;19.886;2024-03-23T10:22:00;12.07;;;8.65;;
84780;SDS011;75011;50.086;19.886;2024-03-23T10:25:06;9.57;;;5.95;;
84780;SDS011;75011;50.086;19.886;2024-03-23T10:28:08;11.00;;;6.53;;
84780;SDS011;75011;50.086;19.886;2024-03-23T10:31:13;13.38;;;6.28;;
84780;SDS011;75011;50.086;19.886;2024-03-23T10:34:13;13.05;;;7.63;;
84780;SDS011;75011;50.086;19.886;2024-03-23T10:37:15;17.10;;;7.38;;
84780;SDS011;75011;50.086;19.886;2024-03-23T10:40:17;11.75;;;6.60;;
84780;SDS011;75011;50.086;19.886;2024-03-23T10:43:19;13.65;;;7.13;;
84780;SDS011;75011;50.086;19.886;2024-03-23T10:46:21;10.85;;;6.45;;
84780;SDS011;75011;50.086;19.886;2024-03-23T10:49:23;9.43;;;6.13;;
84780;SDS011;75011;50.086;19.886;2024-03-23T10:52:25;10.98;;;6.07;;
84780;SDS011;75011;50.086;19.886;2024-03-23T10:55:27;7.20;;;5.05;;
84780;SDS011;75011;50.086;19.886;2024-03-23T10:58:30;6.07;;;3.60;;
84780;SDS011;75011;50.086;19.886;2024-03-23T11:01:35;7.75;;;3.65;;
84780;SDS011;75011;50.086;19.886;2024-03-23T11:04:54;6.28;;;4.10;;
84780;SDS011;75011;50.086;19.886;2024-03-23T11:07:55;7.15;;;3.47;;
84780;SDS011;75011;50.086;19.886;2024-03-23T11:14:31;7.28;;;4.47;;
84780;SDS011;75011;50.086;19.886;2024-03-23T11:17:34;6.82;;;2.60;;
84780;SDS011;75011;50.086;19.886;2024-03-23T11:20:36;5.82;;;2.72;;
84780;SDS011;75011;50.086;19.886;2024-03-23T11:23:36;5.10;;;2.60;;
84780;SDS011;75011;50.086;19.886;2024-03-23T11:26:38;6.05;;;3.80;;
84780;SDS011;75011;50.086;19.886;2024-03-23T11:29:39;5.10;;;2.00;;
84780;SDS011;75011;50.086;19.886;2024-03-23T11:32:43;4.45;;;2.00;;
84780;SDS011;75011;50.086;19.886;2024-03-23T11:35:45;4.28;;;3.22;;
84780;SDS011;75011;50.086;19.886;2024-03-23T11:38:46;5.47;;;2.45;;
84780;SDS011;75011;50.086;19.886;2024-03-23T11:41:47;4.93;;;3.22;;
84780;SDS011;75011;50.086;19.886;2024-03-23T11:44:49;5.95;;;2.92;;
84780;SDS011;75011;50.086;19.886;2024-03-23T11:48:02;5.43;;;3.08;;
84780;SDS011;75011;50.086;19.886;2024-03-23T11:51:05;4.93;;;3.40;;
84780;SDS011;75011;50.086;19.886;2024-03-23T11:54:07;5.22;;;3.75;;
84780;SDS011;75011;50.086;19.886;2024-03-23T11:57:08;4.50;;;3.03;;
84780;SDS011;75011;50.086;19.886;2024-03-23T12:03:35;3.97;;;2.20;;
84780;SDS011;75011;50.086;19.886;2024-03-23T12:06:36;5.32;;;2.40;;
84780;SDS011;75011;50.086;19.886;2024-03-23T12:09:37;4.90;;;2.30;;
84780;SDS011;75011;50.086;19.886;2024-03-23T12:12:39;5.90;;;2.80;;
84780;SDS011;75011;50.086;19.886;2024-03-23T12:15:39;3.72;;;2.30;;
84780;SDS011;75011;50.086;19.886;2024-03-23T12:18:43;4.65;;;3.03;;
84780;SDS011;75011;50.086;19.886;2024-03-23T12:21:45;5.90;;;4.05;;
84780;SDS011;75011;50.086;19.886;2024-03-23T12:24:47;3.92;;;2.00;;
84780;SDS011;75011;50.086;19.886;2024-03-23T12:27:49;4.00;;;3.25;;
84780;SDS011;75011;50.086;19.886;2024-03-23T12:30:49;3.65;;;1.67;;
84780;SDS011;75011;50.086;19.886;2024-03-23T12:33:52;4.10;;;2.78;;
84780;SDS011;75011;50.086;19.886;2024-03-23T12:36:53;3.83;;;2.67;;
84780;SDS011;75011;50.086;19.886;2024-03-23T12:39:55;3.83;;;1.65;;
84780;SDS011;75011;50.086;19.886;2024-03-23T12:42:56;3.28;;;1.33;;
84780;SDS011;75011;50.086;19.886;2024-03-23T12:45:57;2.63;;;1.17;;
84780;SDS011;75011;50.086;19.886;2024-03-23T12:48:59;2.80;;;1.33;;
84780;SDS011;75011;50.086;19.886;2024-03-23T12:52:01;4.05;;;1.60;;
84780;SDS011;75011;50.086;19.886;2024-03-23T12:55:02;4.97;;;2.13;;
84780;SDS011;75011;50.086;19.886;2024-03-23T12:58:05;3.53;;;1.20;;
84780;SDS011;75011;50.086;19.886;2024-03-23T13:01:07;3.08;;;1.60;;
84780;SDS011;75011;50.086;19.886;2024-03-23T13:04:10;3.58;;;1.27;;
84780;SDS011;75011;50.086;19.886;2024-03-23T13:07:11;4.15;;;1.35;;
84780;SDS011;75011;50.086;19.886;2024-03-23T13:10:12;3.22;;;1.23;;
84780;SDS011;75011;50.086;19.886;2024-03-23T13:13:14;4.43;;;1.75;;
84780;SDS011;75011;50.086;19.886;2024-03-23T13:16:15;2.92;;;1.75;;
84780;SDS011;75011;50.086;19.886;2024-03-23T13:19:18;5.78;;;1.65;;
84780;SDS011;75011;50.086;19.886;2024-03-23T13:22:20;3.15;;;1.13;;
84780;SDS011;75011;50.086;19.886;2024-03-23T13:25:21;4.53;;;1.52;;
84780;SDS011;75011;50.086;19.886;2024-03-23T13:28:22;3.38;;;1.20;;
84780;SDS011;75011;50.086;19.886;2024-03-23T13:31:24;3.22;;;2.40;;
84780;SDS011;75011;50.086;19.886;2024-03-23T13:34:26;4.28;;;1.23;;
84780;SDS011;75011;50.086;19.886;2024-03-23T13:37:29;3.22;;;1.60;;
84780;SDS011;75011;50.086;19.886;2024-03-23T13:40:31;3.72;;;1.15;;
84780;SDS011;75011;50.086;19.886;2024-03-23T13:43:31;2.90;;;1.38;;
84780;SDS011;75011;50.086;19.886;2024-03-23T13:46:33;3.00;;;1.13;;
84780;SDS011;75011;50.086;19.886;2024-03-23T13:49:35;4.28;;;1.17;;
84780;SDS011;75011;50.086;19.886;2024-03-23T13:52:37;4.13;;;0.98;;
84780;SDS011;75011;50.086;19.886;2024-03-23T13:55:38;3.72;;;0.80;;
84780;SDS011;75011;50.086;19.886;2024-03-23T13:58:47;3.15;;;2.10;;
84780;SDS011;75011;50.086;19.886;2024-03-23T14:01:49;3.58;;;0.90;;
84780;SDS011;75011;50.086;19.886;2024-03-23T14:04:52;11.55;;;6.20;;
84780;SDS011;75011;50.086;19.886;2024-03-23T14:07:53;3.38;;;1.23;;
84780;SDS011;75011;50.086;19.886;2024-03-23T14:10:54;3.83;;;1.20;;
84780;SDS011;75011;50.086;19.886;2024-03-23T14:13:56;4.50;;;2.15;;
84780;SDS011;75011;50.086;19.886;2024-03-23T14:16:57;4.07;;;2.13;;
84780;SDS011;75011;50.086;19.886;2024-03-23T14:19:59;2.50;;;0.73;;
84780;SDS011;75011;50.086;19.886;2024-03-23T14:23:02;3.05;;;1.45;;
84780;SDS011;75011;50.086;19.886;2024-03-23T14:26:04;2.75;;;1.60;;
84780;SDS011;75011;50.086;19.886;2024-03-23T14:29:06;4.20;;;1.90;;
84780;SDS011;75011;50.086;19.886;2024-03-23T14:32:07;3.67;;;2.08;;
84780;SDS011;75011;50.086;19.886;2024-03-23T14:35:10;7.03;;;1.88;;
84780;SDS011;75011;50.086;19.886;2024-03-23T14:38:12;4.57;;;1.95;;
84780;SDS011;75011;50.086;19.886;2024-03-23T14:41:13;10.32;;;1.10;;
84780;SDS011;75011;50.086;19.886;2024-03-23T14:44:15;7.53;;;1.83;;
84780;SDS011;75011;50.086;19.886;2024-03-23T14:47:16;4.70;;;1.70;;
84780;SDS011;75011;50.086;19.886;2024-03-23T14:50:20;3.92;;;1.70;;
84780;SDS011;75011;50.086;19.886;2024-03-23T14:53:21;2.85;;;1.60;;
84780;SDS011;75011;50.086;19.886;2024-03-23T14:56:23;2.88;;;1.15;;
84780;SDS011;75011;50.086;19.886;2024-03-23T14:59:24;2.75;;;1.52;;
84780;SDS011;75011;50.086;19.886;2024-03-23T15:02:25;3.00;;;1.35;;
84780;SDS011;75011;50.086;19.886;2024-03-23T15:05:28;2.55;;;1.10;;
84780;SDS011;75011;50.086;19.886;2024-03-23T15:08:29;2.75;;;1.25;;
84780;SDS011;75011;50.086;19.886;2024-03-23T15:11:31;3.33;;;1.88;;
84780;SDS011;75011;50.086;19.886;2024-03-23T15:14:32;2.72;;;1.30;;
84780;SDS011;75011;50.086;19.886;2024-03-23T15:17:34;4.35;;;1.38;;
84780;SDS011;75011;50.086;19.886;2024-03-23T15:20:38;2.35;;;0.60;;
84780;SDS011;75011;50.086;19.886;2024-03-23T15:23:40;1.77;;;0.40;;
84780;SDS011;75011;50.086;19.886;2024-03-23T15:26:43;1.80;;;0.95;;
84780;SDS011;75011;50.086;19.886;2024-03-23T15:29:44;2.10;;;1.23;;
84780;SDS011;75011;50.086;19.886;2024-03-23T15:32:46;2.10;;;1.33;;
84780;SDS011;75011;50.086;19.886;2024-03-23T15:35:48;3.60;;;1.55;;
84780;SDS011;75011;50.086;19.886;2024-03-23T15:38:50;4.90;;;1.70;;
84780;SDS011;75011;50.086;19.886;2024-03-23T15:41:51;5.45;;;1.77;;
84780;SDS011;75011;50.086;19.886;2024-03-23T15:44:54;4.65;;;2.40;;
84780;SDS011;75011;50.086;19.886;2024-03-23T15:47:55;3.95;;;2.78;;
84780;SDS011;75011;50.086;19.886;2024-03-23T15:50:59;3.55;;;1.27;;
84780;SDS011;75011;50.086;19.886;2024-03-23T15:54:01;3.25;;;2.15;;
84780;SDS011;75011;50.086;19.886;2024-03-23T15:57:04;5.82;;;2.10;;
84780;SDS011;75011;50.086;19.886;2024-03-23T16:00:05;5.03;;;1.88;;
84780;SDS011;75011;50.086;19.886;2024-03-23T16:03:09;5.32;;;2.95;;
84780;SDS011;75011;50.086;19.886;2024-03-23T16:06:11;4.63;;;1.98;;
84780;SDS011;75011;50.086;19.886;2024-03-23T16:09:13;7.25;;;4.10;;
84780;SDS011;75011;50.086;19.886;2024-03-23T16:12:14;6.72;;;3.65;;
84780;SDS011;75011;50.086;19.886;2024-03-23T16:15:15;6.65;;;3.15;;
84780;SDS011;75011;50.086;19.886;2024-03-23T16:18:17;5.70;;;3.15;;
84780;SDS011;75011;50.086;19.886;2024-03-23T16:21:19;6.70;;;2.92;;
84780;SDS011;75011;50.086;19.886;2024-03-23T16:24:21;5.28;;;3.83;;
84780;SDS011;75011;50.086;19.886;2024-03-23T16:27:21;8.52;;;3.72;;
84780;SDS011;75011;50.086;19.886;2024-03-23T16:30:23;6.65;;;3.50;;
84780;SDS011;75011;50.086;19.886;2024-03-23T16:33:25;4.40;;;3.20;;
84780;SDS011;75011;50.086;19.886;2024-03-23T16:36:28;5.63;;;3.15;;
84780;SDS011;75011;50.086;19.886;2024-03-23T16:39:29;5.32;;;3.28;;
84780;SDS011;75011;50.086;19.886;2024-03-23T16:42:30;6.72;;;4.43;;
84780;SDS011;75011;50.086;19.886;2024-03-23T16:45:31;7.72;;;4.25;;
84780;SDS011;75011;50.086;19.886;2024-03-23T16:48:33;7.43;;;4.03;;
84780;SDS011;75011;50.086;19.886;2024-03-23T16:51:35;9.55;;;5.28;;
84780;SDS011;75011;50.086;19.886;2024-03-23T16:54:36;12.27;;;5.57;;
84780;SDS011;75011;50.086;19.886;2024-03-23T16:57:37;7.50;;;4.75;;
84780;SDS011;75011;50.086;19.886;2024-03-23T17:00:39;9.57;;;5.28;;
84780;SDS011;75011;50.086;19.886;2024-03-23T17:03:41;9.80;;;4.93;;
84780;SDS011;75011;50.086;19.886;2024-03-23T17:06:43;10.00;;;4.68;;
84780;SDS011;75011;50.086;19.886;2024-03-23T17:09:46;10.52;;;6.25;;
84780;SDS011;75011;50.086;19.886;2024-03-23T17:12:47;10.48;;;6.03;;
84780;SDS011;75011;50.086;19.886;2024-03-23T17:15:49;11.60;;;6.40;;
84780;SDS011;75011;50.086;19.886;2024-03-23T17:18:51;11.57;;;6.35;;
84780;SDS011;75011;50.086;19.886;2024-03-23T17:21:55;9.50;;;4.63;;
84780;SDS011;75011;50.086;19.886;2024-03-23T17:24:55;7.25;;;4.93;;
84780;SDS011;75011;50.086;19.886;2024-03-23T17:27:57;9.65;;;5.55;;
84780;SDS011;75011;50.086;19.886;2024-03-23T17:30:58;7.50;;;3.65;;
84780;SDS011;75011;50.086;19.886;2024-03-23T17:34:00;9.27;;;5.93;;
84780;SDS011;75011;50.086;19.886;2024-03-23T17:37:03;8.45;;;5.65;;
84780;SDS011;75011;50.086;19.886;2024-03-23T17:40:04;8.98;;;5.18;;
84780;SDS011;75011;50.086;19.886;2024-03-23T17:43:07;5.35;;;3.90;;
84780;SDS011;75011;50.086;19.886;2024-03-23T17:46:09;6.97;;;4.43;;
84780;SDS011;75011;50.086;19.886;2024-03-23T17:49:10;5.82;;;4.00;;
84780;SDS011;75011;50.086;19.886;2024-03-23T17:52:13;6.25;;;4.15;;
84780;SDS011;75011;50.086;19.886;2024-03-23T17:55:14;8.20;;;4.65;;
84780;SDS011;75011;50.086;19.886;2024-03-23T17:58:16;9.68;;;5.43;;
84780;SDS011;75011;50.086;19.886;2024-03-23T18:01:16;8.85;;;4.80;;
84780;SDS011;75011;50.086;19.886;2024-03-23T18:04:21;8.32;;;4.40;;
84780;SDS011;75011;50.086;19.886;2024-03-23T18:07:23;8.73;;;5.88;;
84780;SDS011;75011;50.086;19.886;2024-03-23T18:10:25;7.63;;;4.43;;
84780;SDS011;75011;50.086;19.886;2024-03-23T18:13:27;10.38;;;4.72;;
84780;SDS011;75011;50.086;19.886;2024-03-23T18:16:27;12.52;;;5.70;;
84780;SDS011;75011;50.086;19.886;2024-03-23T18:19:29;11.15;;;6.50;;
84780;SDS011;75011;50.086;19.886;2024-03-23T18:22:31;10.60;;;7.32;;
84780;SDS011;75011;50.086;19.886;2024-03-23T18:25:33;14.98;;;8.45;;
84780;SDS011;75011;50.086;19.886;2024-03-23T18:28:34;18.52;;;9.15;;
84780;SDS011;75011;50.086;19.886;2024-03-23T18:31:35;14.40;;;8.18;;
84780;SDS011;75011;50.086;19.886;2024-03-23T18:34:36;12.07;;;6.75;;
84780;SDS011;75011;50.086;19.886;2024-03-23T18:37:40;14.88;;;8.50;;
84780;SDS011;75011;50.086;19.886;2024-03-23T18:40:43;14.88;;;10.13;;
84780;SDS011;75011;50.086;19.886;2024-03-23T18:43:46;14.30;;;8.93;;
84780;SDS011;75011;50.086;19.886;2024-03-23T18:46:48;15.50;;;9.95;;